Terminal Aerodrome Forecast
Issued by NWS Duluth, MN

Home | Current Version | Previous Version | Text Only | Print | Product List | Glossary On
Versions: 1 2 3 4 5 6 7 8 9 10 11 12 13 14 15 16 17 18 19 20 21 22
000
FTUS43 KDLH 180500
TAFINL
TAF
KINL 180533Z 1806/1906 14006KT P6SM BKN013
     FM180800 13003KT 4SM BR OVC007
      TEMPO 1808/1812 1/2SM -DZ FG OVC005
     FM181200 14004KT 4SM -RA OVC011
     FM181500 13004KT P6SM -RA VCTS OVC050CB PROB30 1820/1824 6SM
      -TSRA OVC050CB
     FM190000 VRB03KT P6SM -RA VCTS OVC050CB=

USA.gov is the U.S. government's official web portal to all federal, state and local government web resources and services.